High Challenge — D5LX9 — position and weather

sailwx.info

Track history (hours):
 
Tides and Currents Weather Stations Pressure Air Temp Water Temp Dewpoint Dewpoint Depression Visibility Wind Speed Wind Dir Waves Ship Positions

High Challenge

Last reported at 2017-Nov-12 11:04 UTC. Time now 2017-Nov-18 17:55 UTC.
Position N 23°57' W 084°58'.

Length 183 m; draft 11.3 m.

Type: Ship. MMSI: 636017622.

Date/timePositionNaut miles runAvg speedWind from/ knotsBaromVisibWave heightAir tempDewpointWater temp
2017-Nov-12 11:04N 23°57' W 084°58'112.4
2017-Nov-12 11:00N 23°57' W 084°59'612.2
2017-Nov-12 10:29N 23°60' W 085°05'612.1
2017-Nov-12 09:59N 24°02' W 085°12'612.1
2017-Nov-12 09:30N 24°04' W 085°17'612.4
2017-Nov-12 09:00N 24°07' W 085°24'712.2
2017-Nov-12 08:27N 24°09' W 085°30'53112.0
2017-Nov-10 12:05N 29°37' W 093°19'611.0
2017-Nov-10 11:32N 29°43' W 093°20'310.4
2017-Nov-10 11:17N 29°46' W 093°21'3 8.7
2017-Nov-10 11:00N 29°49' W 093°21'5 9.1
2017-Nov-10 10:30N 29°53' W 093°21'4 7.9
2017-Nov-10 10:00N 29°57' W 093°20'3 6.9
2017-Nov-10 09:30N 30°00' W 093°20'3 6.0
2017-Nov-10 09:00N 30°03' W 093°20'3 6.7
2017-Nov-10 08:31N 30°07' W 093°20'3 5.5
2017-Nov-10 08:00N 30°09' W 093°20'2 3.6
2017-Nov-10 07:30N 30°11' W 093°19'2 4.7
2017-Nov-10 07:00N 30°12' W 093°16'1 1.3
2017-Nov-10 06:28N 30°13' W 093°16'0 0.0
2017-Nov-10 05:58N 30°13' W 093°16'0 0.0
2017-Nov-10 05:28N 30°13' W 093°16'0 0.0
2017-Nov-10 04:49N 30°13' W 093°16'0 0.0
2017-Nov-10 04:28N 30°13' W 093°16'0 0.0
2017-Nov-10 03:58N 30°13' W 093°16'0 0.0
2017-Nov-10 03:28N 30°13' W 093°16'0 0.0
2017-Nov-10 02:55N 30°13' W 093°16'0 0.0
2017-Nov-10 02:25N 30°13' W 093°16'0 0.0
2017-Nov-10 01:58N 30°13' W 093°16'0 0.0
2017-Nov-10 01:25N 30°13' W 093°16'0 0.0
2017-Nov-10 00:58N 30°13' W 093°16'0 0.0
2017-Nov-10 00:28N 30°13' W 093°16'0 0.0
2017-Nov-09 23:55N 30°13' W 093°16'0 0.0
2017-Nov-09 23:28N 30°13' W 093°16'0 0.0
2017-Nov-09 22:58N 30°13' W 093°16'0 0.0
2017-Nov-09 22:25N 30°13' W 093°16'0 0.0
2017-Nov-09 21:58N 30°13' W 093°16'0 0.0
2017-Nov-09 21:25N 30°13' W 093°16'0 0.0
2017-Nov-09 20:58N 30°13' W 093°16'0 0.0
2017-Nov-09 20:19N 30°13' W 093°16'1 2.0
2017-Nov-09 20:00N 30°14' W 093°16'1 1.1
2017-Nov-09 19:31N 30°14' W 093°15'0 0.0
2017-Nov-09 18:58N 30°14' W 093°15'0 0.0
2017-Nov-09 18:31N 30°14' W 093°15'0 0.0
2017-Nov-09 18:01N 30°14' W 093°15'0 0.0
2017-Nov-09 17:25N 30°14' W 093°15'0 0.0
2017-Nov-09 17:01N 30°14' W 093°15'0 0.0
2017-Nov-09 16:31N 30°14' W 093°15'0 0.0
2017-Nov-09 15:58N 30°14' W 093°15'0 0.0
2017-Nov-09 15:28N 30°14' W 093°15'0 0.0
2017-Nov-09 15:01N 30°14' W 093°15'0 0.0
2017-Nov-09 14:31N 30°14' W 093°15'0 0.0
2017-Nov-09 13:58N 30°14' W 093°15'0 0.0
2017-Nov-09 13:31N 30°14' W 093°15'0 0.0
2017-Nov-09 13:01N 30°14' W 093°15'0 0.0
2017-Nov-09 12:31N 30°14' W 093°15'0 0.0
2017-Nov-09 12:01N 30°14' W 093°15'0 0.0
2017-Nov-09 11:31N 30°14' W 093°15'0 0.0
2017-Nov-09 11:01N 30°14' W 093°15'0 0.0
2017-Nov-09 10:31N 30°14' W 093°15'0 0.0
2017-Nov-09 10:01N 30°14' W 093°15'0 0.0
2017-Nov-09 09:31N 30°14' W 093°15'0 0.0
2017-Nov-09 09:01N 30°14' W 093°15'0 0.0
2017-Nov-09 08:28N 30°14' W 093°15'0 0.0
2017-Nov-09 07:58N 30°14' W 093°15'0 0.0
2017-Nov-09 07:31N 30°14' W 093°15'0 0.0
2017-Nov-09 06:58N 30°14' W 093°15'0 0.0
2017-Nov-09 06:31N 30°14' W 093°15'0 0.0
2017-Nov-09 06:01N 30°14' W 093°15'0 0.0
2017-Nov-09 05:31N 30°14' W 093°15'0 0.0
2017-Nov-09 05:01N 30°14' W 093°15'0 0.0
2017-Nov-09 04:31N 30°14' W 093°15'0 0.0
2017-Nov-09 04:01N 30°14' W 093°15'0 0.0
2017-Nov-09 03:31N 30°14' W 093°15'0 0.0
2017-Nov-09 02:58N 30°14' W 093°15'0 0.0
2017-Nov-09 02:28N 30°14' W 093°15'0 0.0
2017-Nov-09 01:58N 30°14' W 093°15'0 0.0
2017-Nov-09 01:31N 30°14' W 093°15'0 0.0
2017-Nov-09 01:01N 30°14' W 093°15'0 0.0
2017-Nov-09 00:31N 30°14' W 093°15'0 0.0
2017-Nov-09 00:01N 30°14' W 093°15'0 0.0
2017-Nov-08 23:31N 30°14' W 093°15'0 0.0
2017-Nov-08 23:01N 30°14' W 093°15'0 0.0
2017-Nov-08 22:31N 30°14' W 093°15'0 0.0
2017-Nov-08 21:58N 30°14' W 093°15'0 0.0
2017-Nov-08 21:31N 30°14' W 093°15'0 0.0
2017-Nov-08 21:01N 30°14' W 093°15'0 0.0
2017-Nov-08 20:31N 30°14' W 093°15'0 0.0
2017-Nov-08 20:01N 30°14' W 093°15'0 0.0
2017-Nov-08 19:31N 30°14' W 093°15'0 0.0
2017-Nov-08 19:01N 30°14' W 093°15'0 0.0
2017-Nov-08 18:31N 30°14' W 093°15'0 0.0
2017-Nov-08 18:01N 30°14' W 093°15'0 0.0
2017-Nov-08 17:31N 30°14' W 093°15'0 0.0
2017-Nov-08 17:01N 30°14' W 093°15'0 0.0
2017-Nov-08 16:31N 30°14' W 093°15'0 0.0
2017-Nov-08 16:01N 30°14' W 093°15'0 0.0
2017-Nov-08 15:31N 30°14' W 093°15'0 0.0
2017-Nov-08 15:01N 30°14' W 093°15'0 0.0
2017-Nov-08 14:31N 30°14' W 093°15'0 0.0
2017-Nov-08 14:01N 30°14' W 093°15'0 0.0
2017-Nov-08 13:31N 30°14' W 093°15'0 0.0
2017-Nov-08 12:58N 30°14' W 093°15'0 0.0
2017-Nov-08 12:31N 30°14' W 093°15'0 0.0
2017-Nov-08 12:01N 30°14' W 093°15'0 0.0
2017-Nov-08 11:31N 30°14' W 093°15'0 0.0
2017-Nov-08 11:01N 30°14' W 093°15'0 0.0
2017-Nov-08 10:31N 30°14' W 093°15'0 0.0
2017-Nov-08 10:01N 30°14' W 093°15'0 0.0
2017-Nov-08 09:31N 30°14' W 093°15'0 0.0
2017-Nov-08 09:01N 30°14' W 093°15'0 0.0
2017-Nov-08 08:31N 30°14' W 093°15'0 0.0
2017-Nov-08 08:01N 30°14' W 093°15'0 0.0
2017-Nov-08 07:31N 30°14' W 093°15'0 0.0
2017-Nov-08 07:01N 30°14' W 093°15'0 0.0
2017-Nov-08 06:31N 30°14' W 093°15'0 0.0
2017-Nov-08 06:01N 30°14' W 093°15'1 2.3
2017-Nov-08 05:31N 30°13' W 093°16'3 5.5
2017-Nov-08 05:01N 30°11' W 093°18'2 4.4
2017-Nov-08 04:31N 30°09' W 093°20'3 5.8
2017-Nov-08 04:01N 30°06' W 093°20'4 7.7
2017-Nov-08 03:31N 30°03' W 093°20'4 7.5
2017-Nov-08 03:01N 29°59' W 093°20'5 9.9
2017-Nov-08 02:30N 29°54' W 093°21'612.0
2017-Nov-08 02:00N 29°48' W 093°21'611.2
2017-Nov-08 01:31N 29°42' W 093°20'611.6
2017-Nov-08 01:01N 29°37' W 093°19'510.0
2017-Nov-08 00:30N 29°33' W 093°14'  
Track history (hours):
 
Tides and Currents Weather Stations Pressure Air Temp Water Temp Dewpoint Dewpoint Depression Visibility Wind Speed Wind Dir Waves Ship Positions

High Challenge

Last reported at 2017-Nov-12 11:04 UTC. Time now 2017-Nov-18 17:55 UTC.
Position N 23°57' W 084°58'.

Length 183 m; draft 11.3 m.

Type: Ship. MMSI: 636017622.

Date/timePositionNaut miles runAvg speedWind from/ knotsBaromVisibWave heightAir tempDewpointWater temp
2017-Nov-12 11:04N 23°57' W 084°58'112.4
2017-Nov-12 11:00N 23°57' W 084°59'612.2
2017-Nov-12 10:29N 23°60' W 085°05'612.1
2017-Nov-12 09:59N 24°02' W 085°12'612.1
2017-Nov-12 09:30N 24°04' W 085°17'612.4
2017-Nov-12 09:00N 24°07' W 085°24'712.2
2017-Nov-12 08:27N 24°09' W 085°30'53112.0
2017-Nov-10 12:05N 29°37' W 093°19'611.0
2017-Nov-10 11:32N 29°43' W 093°20'310.4
2017-Nov-10 11:17N 29°46' W 093°21'3 8.7
2017-Nov-10 11:00N 29°49' W 093°21'5 9.1
2017-Nov-10 10:30N 29°53' W 093°21'4 7.9
2017-Nov-10 10:00N 29°57' W 093°20'3 6.9
2017-Nov-10 09:30N 30°00' W 093°20'3 6.0
2017-Nov-10 09:00N 30°03' W 093°20'3 6.7
2017-Nov-10 08:31N 30°07' W 093°20'3 5.5
2017-Nov-10 08:00N 30°09' W 093°20'2 3.6
2017-Nov-10 07:30N 30°11' W 093°19'2 4.7
2017-Nov-10 07:00N 30°12' W 093°16'1 1.3
2017-Nov-10 06:28N 30°13' W 093°16'0 0.0
2017-Nov-10 05:58N 30°13' W 093°16'0 0.0
2017-Nov-10 05:28N 30°13' W 093°16'0 0.0
2017-Nov-10 04:49N 30°13' W 093°16'0 0.0
2017-Nov-10 04:28N 30°13' W 093°16'0 0.0
2017-Nov-10 03:58N 30°13' W 093°16'0 0.0
2017-Nov-10 03:28N 30°13' W 093°16'0 0.0
2017-Nov-10 02:55N 30°13' W 093°16'0 0.0
2017-Nov-10 02:25N 30°13' W 093°16'0 0.0
2017-Nov-10 01:58N 30°13' W 093°16'0 0.0
2017-Nov-10 01:25N 30°13' W 093°16'0 0.0
2017-Nov-10 00:58N 30°13' W 093°16'0 0.0
2017-Nov-10 00:28N 30°13' W 093°16'0 0.0
2017-Nov-09 23:55N 30°13' W 093°16'0 0.0
2017-Nov-09 23:28N 30°13' W 093°16'0 0.0
2017-Nov-09 22:58N 30°13' W 093°16'0 0.0
2017-Nov-09 22:25N 30°13' W 093°16'0 0.0
2017-Nov-09 21:58N 30°13' W 093°16'0 0.0
2017-Nov-09 21:25N 30°13' W 093°16'0 0.0
2017-Nov-09 20:58N 30°13' W 093°16'0 0.0
2017-Nov-09 20:19N 30°13' W 093°16'1 2.0
2017-Nov-09 20:00N 30°14' W 093°16'1 1.1
2017-Nov-09 19:31N 30°14' W 093°15'0 0.0
2017-Nov-09 18:58N 30°14' W 093°15'0 0.0
2017-Nov-09 18:31N 30°14' W 093°15'0 0.0
2017-Nov-09 18:01N 30°14' W 093°15'0 0.0
2017-Nov-09 17:25N 30°14' W 093°15'0 0.0
2017-Nov-09 17:01N 30°14' W 093°15'0 0.0
2017-Nov-09 16:31N 30°14' W 093°15'0 0.0
2017-Nov-09 15:58N 30°14' W 093°15'0 0.0
2017-Nov-09 15:28N 30°14' W 093°15'0 0.0
2017-Nov-09 15:01N 30°14' W 093°15'0 0.0
2017-Nov-09 14:31N 30°14' W 093°15'0 0.0
2017-Nov-09 13:58N 30°14' W 093°15'0 0.0
2017-Nov-09 13:31N 30°14' W 093°15'0 0.0
2017-Nov-09 13:01N 30°14' W 093°15'0 0.0
2017-Nov-09 12:31N 30°14' W 093°15'0 0.0
2017-Nov-09 12:01N 30°14' W 093°15'0 0.0
2017-Nov-09 11:31N 30°14' W 093°15'0 0.0
2017-Nov-09 11:01N 30°14' W 093°15'0 0.0
2017-Nov-09 10:31N 30°14' W 093°15'0 0.0
2017-Nov-09 10:01N 30°14' W 093°15'0 0.0
2017-Nov-09 09:31N 30°14' W 093°15'0 0.0
2017-Nov-09 09:01N 30°14' W 093°15'0 0.0
2017-Nov-09 08:28N 30°14' W 093°15'0 0.0
2017-Nov-09 07:58N 30°14' W 093°15'0 0.0
2017-Nov-09 07:31N 30°14' W 093°15'0 0.0
2017-Nov-09 06:58N 30°14' W 093°15'0 0.0
2017-Nov-09 06:31N 30°14' W 093°15'0 0.0
2017-Nov-09 06:01N 30°14' W 093°15'0 0.0
2017-Nov-09 05:31N 30°14' W 093°15'0 0.0
2017-Nov-09 05:01N 30°14' W 093°15'0 0.0
2017-Nov-09 04:31N 30°14' W 093°15'0 0.0
2017-Nov-09 04:01N 30°14' W 093°15'0 0.0
2017-Nov-09 03:31N 30°14' W 093°15'0 0.0
2017-Nov-09 02:58N 30°14' W 093°15'0 0.0
2017-Nov-09 02:28N 30°14' W 093°15'0 0.0
2017-Nov-09 01:58N 30°14' W 093°15'0 0.0
2017-Nov-09 01:31N 30°14' W 093°15'0 0.0
2017-Nov-09 01:01N 30°14' W 093°15'0 0.0
2017-Nov-09 00:31N 30°14' W 093°15'0 0.0
2017-Nov-09 00:01N 30°14' W 093°15'0 0.0
2017-Nov-08 23:31N 30°14' W 093°15'0 0.0
2017-Nov-08 23:01N 30°14' W 093°15'0 0.0
2017-Nov-08 22:31N 30°14' W 093°15'0 0.0
2017-Nov-08 21:58N 30°14' W 093°15'0 0.0
2017-Nov-08 21:31N 30°14' W 093°15'0 0.0
2017-Nov-08 21:01N 30°14' W 093°15'0 0.0
2017-Nov-08 20:31N 30°14' W 093°15'0 0.0
2017-Nov-08 20:01N 30°14' W 093°15'0 0.0
2017-Nov-08 19:31N 30°14' W 093°15'0 0.0
2017-Nov-08 19:01N 30°14' W 093°15'0 0.0
2017-Nov-08 18:31N 30°14' W 093°15'0 0.0
2017-Nov-08 18:01N 30°14' W 093°15'0 0.0
2017-Nov-08 17:31N 30°14' W 093°15'0 0.0
2017-Nov-08 17:01N 30°14' W 093°15'0 0.0
2017-Nov-08 16:31N 30°14' W 093°15'0 0.0
2017-Nov-08 16:01N 30°14' W 093°15'0 0.0
2017-Nov-08 15:31N 30°14' W 093°15'0 0.0
2017-Nov-08 15:01N 30°14' W 093°15'0 0.0
2017-Nov-08 14:31N 30°14' W 093°15'0 0.0
2017-Nov-08 14:01N 30°14' W 093°15'0 0.0
2017-Nov-08 13:31N 30°14' W 093°15'0 0.0
2017-Nov-08 12:58N 30°14' W 093°15'0 0.0
2017-Nov-08 12:31N 30°14' W 093°15'0 0.0
2017-Nov-08 12:01N 30°14' W 093°15'0 0.0
2017-Nov-08 11:31N 30°14' W 093°15'0 0.0
2017-Nov-08 11:01N 30°14' W 093°15'0 0.0
2017-Nov-08 10:31N 30°14' W 093°15'0 0.0
2017-Nov-08 10:01N 30°14' W 093°15'0 0.0
2017-Nov-08 09:31N 30°14' W 093°15'0 0.0
2017-Nov-08 09:01N 30°14' W 093°15'0 0.0
2017-Nov-08 08:31N 30°14' W 093°15'0 0.0
2017-Nov-08 08:01N 30°14' W 093°15'0 0.0
2017-Nov-08 07:31N 30°14' W 093°15'0 0.0
2017-Nov-08 07:01N 30°14' W 093°15'0 0.0
2017-Nov-08 06:31N 30°14' W 093°15'0 0.0
2017-Nov-08 06:01N 30°14' W 093°15'1 2.3
2017-Nov-08 05:31N 30°13' W 093°16'3 5.5
2017-Nov-08 05:01N 30°11' W 093°18'2 4.4
2017-Nov-08 04:31N 30°09' W 093°20'3 5.8
2017-Nov-08 04:01N 30°06' W 093°20'4 7.7
2017-Nov-08 03:31N 30°03' W 093°20'4 7.5
2017-Nov-08 03:01N 29°59' W 093°20'5 9.9
2017-Nov-08 02:30N 29°54' W 093°21'612.0
2017-Nov-08 02:00N 29°48' W 093°21'611.2
2017-Nov-08 01:31N 29°42' W 093°20'611.6
2017-Nov-08 01:01N 29°37' W 093°19'510.0
2017-Nov-08 00:30N 29°33' W 093°14'  

Dump ship's entire track history